Arapahoe, Wyoming
Current Conditions -  °F | °C
As of 3:53 PM on Thursday 27 Nov 2014 (Local Time) from KRIW Reporting Station
Clear Clear  
Wind Chill: 11°   Ceiling: Unl
Heat Index: 11°   Visibility: 10mi
Dew Point: -1°   Wind: 7mph
Humidity: 44%   Direction: 250°WSW
Pressure: 30.06"   Gusts: NA
Location:  42.96°N, 108.49°W
Report Text: KRIW 272253Z AUTO 25006KT 10SM CLR 11/M01 A3006 RMK AO2 SLP173 T01061011
Loading
Personal Weather Stations






























Interactive Weather Map New forecast layout! Learn more

10-Day Weather Forecast

Advertisements
Track Severe Weather on mobile